Time;durP1;ratioP1;P1;durP2;ratioP2;P2;SDS_P1;SDS_P2;PMS_P1;PMS_P2;Temp;Humidity;BMP_temperature;BMP_pressure;BME280_temperature;BME280_humidity;BME280_pressure;Samples;Min_cycle;Max_cycle;Signal;HPM_P1;HPM_P2
2023/10/06 00:01:31;;;;;;;10.02;4.50;;;14.40;99.90;;;;;;5114492;28;20521;-65
2023/10/06 00:03:59;;;;;;;10.38;4.78;;;14.30;99.90;;;;;;5100613;28;20044;-66
2023/10/06 00:06:27;;;;;;;10.95;4.97;;;14.30;99.90;;;;;;5094297;28;20067;-65
2023/10/06 00:08:57;;;;;;;8.85;5.45;;;14.40;99.90;;;;;;5093746;28;20433;-65
2023/10/06 00:11:28;;;;;;;10.65;5.95;;;14.40;99.90;;;;;;5093657;28;20048;-65
2023/10/06 00:14:01;;;;;;;8.82;5.63;;;14.40;99.90;;;;;;5107270;28;20452;-65
2023/10/06 00:16:33;;;;;;;11.82;6.60;;;14.30;99.90;;;;;;5114370;28;20051;-65
2023/10/06 00:19:11;;;;;;;13.80;6.72;;;14.40;99.90;;;;;;5114639;28;20089;-66
2023/10/06 00:21:46;;;;;;;10.60;6.90;;;14.30;99.90;;;;;;5114249;28;20375;-66
2023/10/06 00:24:12;;;;;;;9.60;5.82;;;14.40;99.90;;;;;;5098529;28;20044;-66
2023/10/06 00:26:42;;;;;;;10.05;6.25;;;14.40;99.90;;;;;;5076687;28;20108;-65
2023/10/06 00:29:18;;;;;;;11.88;6.03;;;14.30;99.90;;;;;;5094095;28;20047;-66
2023/10/06 00:31:47;;;;;;;11.60;6.53;;;14.30;99.90;;;;;;5093942;28;20052;-66
2023/10/06 00:34:20;;;;;;;10.45;6.55;;;14.30;99.90;;;;;;5109872;28;20043;-65
2023/10/06 00:36:51;;;;;;;12.63;6.35;;;14.40;99.90;;;;;;5114535;28;20161;-65
2023/10/06 00:39:33;;;;;;;14.50;7.15;;;14.30;99.90;;;;;;5114257;28;20051;-66
2023/10/06 00:42:04;;;;;;;11.98;6.60;;;14.30;99.90;;;;;;5096489;28;20059;-66
2023/10/06 00:44:30;;;;;;;9.32;6.22;;;14.40;99.90;;;;;;5095745;28;20135;-65
2023/10/06 00:47:05;;;;;;;14.98;6.55;;;14.30;99.90;;;;;;5093369;28;20052;-65
2023/10/06 00:49:36;;;;;;;11.00;6.30;;;14.30;99.90;;;;;;5093209;28;20113;-65
2023/10/06 00:52:06;;;;;;;9.93;6.47;;;14.30;99.90;;;;;;5093709;28;20048;-65
2023/10/06 00:54:34;;;;;;;;;;;14.30;99.90;;;;;;5112415;28;20130;-66
2023/10/06 00:57:08;;;;;;;11.35;6.18;;;14.30;99.90;;;;;;5097647;28;19923;-65
2023/10/06 00:59:49;;;;;;;11.70;7.30;;;14.30;99.90;;;;;;5076299;28;20321;-66
2023/10/06 01:02:15;;;;;;;10.43;6.07;;;14.40;99.90;;;;;;5075459;28;20116;-66
2023/10/06 01:04:52;;;;;;;10.80;6.10;;;14.30;99.90;;;;;;5093973;28;20044;-66
2023/10/06 01:07:19;;;;;;;11.82;5.93;;;14.20;99.90;;;;;;5093350;28;20036;-66
2023/10/06 01:10:14;;;;;;;12.80;6.43;;;14.20;99.90;;;;;;5058016;28;20052;-66
2023/10/06 01:12:41;;;;;;;11.07;5.80;;;14.20;99.90;;;;;;5078141;28;20149;-66
2023/10/06 01:15:17;;;;;;;9.55;5.95;;;14.20;99.90;;;;;;5113560;28;20043;-66
2023/10/06 01:17:45;;;;;;;12.70;6.85;;;14.30;99.90;;;;;;5113186;28;20059;-66
2023/10/06 01:20:40;;;;;;;11.07;5.82;;;14.30;99.90;;;;;;5093880;28;20044;-66
2023/10/06 01:23:20;;;;;;;12.75;6.57;;;14.20;99.90;;;;;;5102448;28;20380;-66
2023/10/06 01:25:53;;;;;;;11.13;6.25;;;14.20;99.90;;;;;;5112582;28;20133;-66
2023/10/06 01:28:23;;;;;;;11.85;5.47;;;14.20;99.90;;;;;;5080056;28;20055;-66
2023/10/06 01:30:53;;;;;;;12.10;5.65;;;14.10;99.90;;;;;;5094823;28;20120;-66
2023/10/06 01:33:20;;;;;;;10.48;6.05;;;14.20;99.90;;;;;;5105194;28;20052;-65
2023/10/06 01:35:46;;;;;;;10.35;5.10;;;14.20;99.90;;;;;;5058584;28;20044;-65
2023/10/06 01:38:22;;;;;;;12.95;5.50;;;14.10;99.90;;;;;;5092917;28;20044;-66
2023/10/06 01:40:56;;;;;;;9.68;5.70;;;14.20;99.90;;;;;;5075834;28;20048;-66
2023/10/06 01:43:29;;;;;;;10.02;5.80;;;14.10;99.90;;;;;;5100807;28;20092;-66
2023/10/06 01:45:55;;;;;;;10.63;5.30;;;14.10;99.90;;;;;;5106939;28;20044;-65
2023/10/06 01:50:49;;;;;;;11.32;5.90;;;14.10;99.90;;;;;;5112493;28;20054;-66
2023/10/06 01:53:19;;;;;;;10.60;5.88;;;14.10;99.90;;;;;;5088023;28;20439;-66
2023/10/06 01:55:52;;;;;;;12.05;5.80;;;14.00;99.90;;;;;;5092312;28;20523;-66
2023/10/06 01:58:20;;;;;;;9.98;5.50;;;14.10;99.90;;;;;;5092157;28;20059;-66
2023/10/06 02:00:50;;;;;;;12.63;6.03;;;14.00;99.90;;;;;;5057496;28;20056;-66
2023/10/06 02:03:21;;;;;;;12.57;5.70;;;14.10;99.90;;;;;;5098972;28;20467;-66
2023/10/06 02:05:55;;;;;;;12.65;6.18;;;14.10;99.90;;;;;;5095367;28;20051;-66
2023/10/06 02:08:23;;;;;;;12.70;5.72;;;14.10;99.90;;;;;;5079044;28;20270;-66
2023/10/06 02:10:50;;;;;;;11.48;5.72;;;14.10;99.90;;;;;;5111464;28;20456;-67
2023/10/06 02:13:21;;;;;;;10.55;5.90;;;14.20;99.90;;;;;;5104790;28;20047;-66
2023/10/06 02:16:01;;;;;;;;;;;14.20;99.90;;;;;;5075799;28;20064;-66
2023/10/06 02:18:36;;;;;;;11.80;5.50;;;14.20;99.90;;;;;;5091575;28;20510;-66
2023/10/06 02:21:14;;;;;;;15.48;6.03;;;14.20;99.90;;;;;;5091714;28;20058;-66
2023/10/06 02:23:42;;;;;;;9.90;5.57;;;14.20;99.90;;;;;;5102193;28;20124;-66
2023/10/06 02:26:13;;;;;;;9.68;6.35;;;14.10;99.90;;;;;;5094639;28;20417;-66
2023/10/06 02:28:43;;;;;;;9.50;5.93;;;14.20;99.90;;;;;;5094561;28;20138;-67
2023/10/06 02:31:13;;;;;;;10.82;6.88;;;14.10;99.90;;;;;;5111952;28;20418;-66
2023/10/06 02:33:48;;;;;;;13.65;6.43;;;14.10;99.90;;;;;;5101290;28;20521;-66
2023/10/06 02:36:23;;;;;;;12.80;6.95;;;14.10;99.90;;;;;;5059142;28;20379;-66
2023/10/06 02:38:50;;;;;;;13.02;6.32;;;14.10;99.90;;;;;;5092114;28;20052;-66
2023/10/06 02:41:19;;;;;;;12.13;7.13;;;14.10;99.90;;;;;;5073666;28;20063;-66
2023/10/06 02:43:47;;;;;;;12.25;6.97;;;14.10;99.90;;;;;;5102504;28;20061;-66
2023/10/06 02:46:15;;;;;;;10.68;7.15;;;14.10;99.90;;;;;;5094255;28;20044;-66
2023/10/06 02:49:07;;;;;;;13.40;7.10;;;14.10;99.90;;;;;;5094137;28;20328;-66
2023/10/06 02:51:33;;;;;;;9.05;5.95;;;14.10;99.90;;;;;;5094267;28;20047;-66
2023/10/06 02:56:44;;;;;;;10.90;6.03;;;14.00;99.90;;;;;;5076332;28;20056;-66
2023/10/06 02:59:24;;;;;;;10.48;6.72;;;14.10;99.90;;;;;;5091313;28;20340;-65
2023/10/06 03:01:52;;;;;;;13.25;6.70;;;14.00;99.90;;;;;;5091885;28;20055;-67
2023/10/06 03:04:21;;;;;;;11.93;6.45;;;14.00;99.90;;;;;;5106880;28;20044;-64
2023/10/06 03:06:55;;;;;;;15.43;6.43;;;13.90;99.90;;;;;;5111918;28;20059;-64
2023/10/06 03:09:38;;;;;;;16.85;5.90;;;13.90;99.90;;;;;;5111369;28;20063;-64
2023/10/06 03:12:13;;;;;;;12.52;6.07;;;13.90;99.90;;;;;;5112084;28;20051;-64
2023/10/06 03:14:39;;;;;;;12.82;6.25;;;13.80;99.90;;;;;;5093615;28;20176;-65
2023/10/06 03:17:08;;;;;;;9.82;5.90;;;13.80;99.90;;;;;;5091430;28;20044;-65
2023/10/06 03:19:41;;;;;;;11.30;6.13;;;13.80;99.90;;;;;;5093039;28;20051;-64
2023/10/06 03:22:09;;;;;;;11.68;5.95;;;13.70;99.90;;;;;;5078024;28;20502;-65
2023/10/06 03:24:59;;;;;;;9.48;5.65;;;13.70;99.90;;;;;;5112910;28;20059;-65
2023/10/06 03:27:25;;;;;;;13.32;6.97;;;13.70;99.90;;;;;;5116051;28;20390;-65
2023/10/06 03:32:29;;;;;;;12.48;6.53;;;13.70;99.90;;;;;;5115576;28;20100;-65
2023/10/06 03:35:17;;;;;;;16.08;6.35;;;13.60;99.90;;;;;;5115975;28;20075;-65
2023/10/06 03:37:52;;;;;;;11.63;6.35;;;13.60;99.90;;;;;;5115896;28;20043;-64
2023/10/06 03:40:23;;;;;;;10.40;5.97;;;13.60;99.90;;;;;;5114681;28;20039;-65
2023/10/06 03:42:50;;;;;;;12.63;6.15;;;13.60;99.90;;;;;;5112643;28;20044;-65
2023/10/06 03:45:32;;;;;;;10.80;5.68;;;13.60;99.90;;;;;;5095303;28;20172;-64
2023/10/06 03:48:14;;;;;;;9.32;5.72;;;13.60;99.90;;;;;;5094647;28;20067;-64
2023/10/06 03:50:44;;;;;;;11.63;6.53;;;13.50;99.90;;;;;;5112952;28;20044;-63
2023/10/06 03:53:14;;;;;;;9.35;5.88;;;13.50;99.90;;;;;;5109778;28;20055;-64
2023/10/06 03:55:44;;;;;;;10.98;5.53;;;13.50;99.90;;;;;;5094562;28;20447;-63
2023/10/06 03:58:15;;;;;;;11.38;6.00;;;13.50;99.90;;;;;;5094841;28;20055;-64
2023/10/06 04:00:47;;;;;;;11.20;6.13;;;13.40;99.90;;;;;;5094591;28;20051;-63
2023/10/06 04:03:17;;;;;;;12.02;6.22;;;13.50;99.90;;;;;;5099920;28;20044;-64
2023/10/06 04:05:48;;;;;;;9.88;5.45;;;13.40;99.90;;;;;;5096439;28;20047;-64
2023/10/06 04:08:20;;;;;;;9.70;5.35;;;13.50;99.90;;;;;;5114788;28;20055;-64
2023/10/06 04:10:50;;;;;;;10.32;5.72;;;13.40;99.90;;;;;;5114040;28;20109;-64
2023/10/06 04:13:20;;;;;;;10.68;6.03;;;13.40;99.90;;;;;;5108308;28;20055;-65
2023/10/06 04:15:50;;;;;;;13.88;5.75;;;13.50;99.90;;;;;;5094998;28;20117;-64
2023/10/06 04:18:18;;;;;;;12.52;5.65;;;13.50;99.90;;;;;;5094144;28;20122;-64
2023/10/06 04:20:45;;;;;;;10.45;5.30;;;13.60;99.90;;;;;;5093913;28;20051;-63
2023/10/06 04:23:13;;;;;;;12.30;5.50;;;13.50;99.90;;;;;;5099239;28;20043;-64
2023/10/06 04:25:40;;;;;;;9.10;5.55;;;13.60;99.90;;;;;;5114519;28;20044;-64
2023/10/06 04:28:08;;;;;;;16.48;5.90;;;13.50;99.90;;;;;;5114529;28;20044;-64
2023/10/06 04:30:35;;;;;;;13.45;5.82;;;13.50;99.90;;;;;;5113670;28;20104;-64
2023/10/06 04:33:06;;;;;;;11.20;6.03;;;13.50;99.90;;;;;;5110270;28;20138;-64
2023/10/06 04:35:32;;;;;;;11.93;6.00;;;13.50;99.90;;;;;;5094384;28;20052;-63
2023/10/06 04:38:05;;;;;;;11.45;5.30;;;13.50;99.90;;;;;;5075775;28;20060;-64
2023/10/06 04:40:32;;;;;;;10.98;5.80;;;13.50;99.90;;;;;;5075982;28;20048;-64
2023/10/06 04:42:59;;;;;;;12.75;6.28;;;13.50;99.90;;;;;;5096932;28;20123;-64
2023/10/06 04:45:26;;;;;;;11.30;5.22;;;13.50;99.90;;;;;;5114078;28;20047;-65
2023/10/06 04:47:55;;;;;;;10.15;5.03;;;13.50;99.90;;;;;;5113923;28;20060;-66
2023/10/06 04:50:22;;;;;;;9.98;5.60;;;13.50;99.90;;;;;;5114023;28;20066;-64
2023/10/06 04:52:48;;;;;;;12.13;6.10;;;13.50;99.90;;;;;;5093698;28;20058;-63
2023/10/06 04:55:15;;;;;;;11.05;5.95;;;13.60;99.90;;;;;;5093531;28;20086;-65
2023/10/06 04:57:41;;;;;;;8.82;5.70;;;13.50;99.90;;;;;;5075790;28;20056;-64
2023/10/06 05:00:15;;;;;;;11.48;6.10;;;13.60;99.90;;;;;;5092587;28;20468;-64
2023/10/06 05:02:44;;;;;;;11.50;6.07;;;13.60;99.90;;;;;;5094130;28;20052;-64
2023/10/06 05:05:11;;;;;;;10.68;5.55;;;13.60;99.90;;;;;;5095349;28;20048;-64
2023/10/06 05:07:38;;;;;;;11.45;5.68;;;13.70;99.90;;;;;;5113623;28;20054;-64
2023/10/06 05:10:08;;;;;;;10.10;5.90;;;13.70;99.90;;;;;;5112965;28;20074;-64
2023/10/06 05:12:37;;;;;;;12.18;5.82;;;13.60;99.90;;;;;;5095019;28;20111;-64
2023/10/06 05:15:14;;;;;;;11.68;5.63;;;13.70;99.90;;;;;;5093042;28;20047;-66
2023/10/06 05:17:56;;;;;;;10.80;6.22;;;13.80;99.90;;;;;;5093398;28;20063;-64
2023/10/06 05:20:29;;;;;;;11.57;5.80;;;13.70;99.90;;;;;;5095612;28;20052;-64
2023/10/06 05:23:07;;;;;;;12.55;6.05;;;13.70;99.90;;;;;;5110479;28;20104;-65
2023/10/06 05:25:34;;;;;;;14.15;7.13;;;13.70;99.90;;;;;;5096740;28;20039;-66
2023/10/06 05:28:00;;;;;;;12.20;5.82;;;13.80;99.90;;;;;;5112152;28;20432;-64
2023/10/06 05:30:28;;;;;;;12.85;5.20;;;13.80;99.90;;;;;;5094428;28;20050;-65
2023/10/06 05:32:57;;;;;;;10.07;5.82;;;13.80;99.90;;;;;;5111041;28;20133;-64
2023/10/06 05:35:29;;;;;;;12.90;6.00;;;13.80;99.90;;;;;;5074486;28;20447;-64
2023/10/06 05:38:27;;;;;;;11.48;6.18;;;13.80;99.90;;;;;;5092834;28;20055;-64
2023/10/06 05:40:53;;;;;;;15.40;6.30;;;13.90;99.90;;;;;;5074223;28;20056;-66
2023/10/06 05:43:24;;;;;;;9.23;5.78;;;13.90;99.90;;;;;;5097967;28;20046;-64
2023/10/06 05:45:56;;;;;;;12.98;7.43;;;13.90;99.90;;;;;;5112913;28;20361;-64
2023/10/06 05:49:08;;;;;;;14.05;7.07;;;13.80;99.90;;;;;;5093938;28;20040;-65
2023/10/06 05:52:17;;;;;;;11.15;6.03;;;13.90;99.90;;;;;;5109541;28;20058;-64
2023/10/06 05:54:43;;;;;;;11.90;6.18;;;13.90;99.90;;;;;;5109486;28;20073;-64
2023/10/06 05:57:10;;;;;;;12.82;6.20;;;14.00;99.90;;;;;;5110726;28;20132;-66
2023/10/06 05:59:38;;;;;;;10.43;6.43;;;14.00;99.90;;;;;;5093211;28;20096;-65
2023/10/06 06:02:05;;;;;;;13.38;6.88;;;13.90;99.90;;;;;;5093593;28;20418;-66
2023/10/06 06:04:34;;;;;;;10.82;6.20;;;14.00;99.90;;;;;;5094891;28;20048;-64
2023/10/06 06:07:02;;;;;;;12.20;6.45;;;14.00;99.90;;;;;;5092411;28;20036;-64
2023/10/06 06:09:33;;;;;;;19.65;6.70;;;14.10;99.90;;;;;;5091848;28;20078;-65
2023/10/06 06:12:00;;;;;;;13.18;6.25;;;14.00;99.90;;;;;;5109048;28;20050;-65
2023/10/06 06:14:26;;;;;;;10.10;6.22;;;14.00;99.90;;;;;;5106203;28;20039;-65
2023/10/06 06:16:52;;;;;;;12.07;7.15;;;14.10;99.90;;;;;;5112730;28;20091;-64
2023/10/06 06:19:20;;;;;;;9.25;5.97;;;14.00;99.90;;;;;;5092592;28;20039;-66
2023/10/06 06:21:48;;;;;;;11.65;7.00;;;14.20;99.90;;;;;;5112763;28;20409;-66
2023/10/06 06:24:20;;;;;;;9.57;6.47;;;14.10;99.90;;;;;;5091430;28;20538;-64
2023/10/06 06:26:46;;;;;;;13.82;6.60;;;14.20;99.90;;;;;;5110519;28;20044;-66
2023/10/06 06:29:12;;;;;;;12.10;6.88;;;14.20;99.90;;;;;;5110689;28;20047;-66
2023/10/06 06:31:40;;;;;;;14.73;6.78;;;14.30;99.90;;;;;;5110668;28;20051;-65
2023/10/06 06:34:07;;;;;;;10.63;6.22;;;14.20;99.90;;;;;;5109342;28;20047;-65
2023/10/06 06:36:33;;;;;;;12.38;5.80;;;14.20;99.90;;;;;;5110604;28;20044;-64
2023/10/06 06:39:00;;;;;;;13.48;6.70;;;14.20;99.90;;;;;;5107174;28;20070;-68
2023/10/06 06:41:27;;;;;;;12.35;6.15;;;14.30;99.90;;;;;;5086589;28;20055;-64
2023/10/06 06:43:59;;;;;;;11.60;7.80;;;14.30;99.90;;;;;;5101712;28;20054;-66
2023/10/06 06:46:27;;;;;;;11.15;6.00;;;14.30;99.90;;;;;;5109088;28;20062;-65
2023/10/06 06:48:53;;;;;;;13.90;7.40;;;14.30;99.90;;;;;;5111486;28;20048;-64
2023/10/06 06:51:20;;;;;;;10.77;5.82;;;14.30;99.90;;;;;;5112628;28;20047;-65
2023/10/06 06:53:47;;;;;;;11.38;5.80;;;14.30;99.90;;;;;;5106919;27;20369;-67
2023/10/06 06:56:13;;;;;;;11.80;5.88;;;14.30;99.90;;;;;;5106422;28;20044;-64
2023/10/06 06:58:39;;;;;;;12.43;6.57;;;14.30;99.90;;;;;;5083601;28;20055;-65
2023/10/06 07:01:14;;;;;;;16.83;6.18;;;14.30;99.90;;;;;;5108761;28;20063;-65
2023/10/06 07:03:40;;;;;;;13.45;5.95;;;14.30;99.90;;;;;;5096890;28;20093;-66
2023/10/06 07:06:16;;;;;;;12.85;6.35;;;14.20;99.90;;;;;;5116081;28;20043;-65
2023/10/06 07:08:44;;;;;;;16.20;7.07;;;14.20;99.90;;;;;;5097914;28;20059;-65
2023/10/06 07:11:10;;;;;;;8.77;5.88;;;14.20;99.90;;;;;;5116016;28;20047;-64
2023/10/06 07:13:37;;;;;;;12.65;5.70;;;14.20;99.90;;;;;;5115253;28;20051;-65
2023/10/06 07:16:09;;;;;;;11.38;6.20;;;14.30;99.90;;;;;;5084526;28;20054;-65
2023/10/06 07:18:39;;;;;;;9.75;5.88;;;14.20;99.90;;;;;;5095444;28;20125;-65
2023/10/06 07:21:09;;;;;;;11.38;5.60;;;14.30;99.90;;;;;;5095306;28;20047;-65
2023/10/06 07:23:37;;;;;;;10.45;5.55;;;14.20;99.90;;;;;;5101810;28;20097;-65
2023/10/06 07:26:11;;;;;;;10.07;5.30;;;14.30;99.90;;;;;;5115220;28;20043;-66
2023/10/06 07:28:39;;;;;;;13.10;6.78;;;14.30;99.90;;;;;;5072974;28;20094;-64
2023/10/06 07:31:12;;;;;;;12.98;5.68;;;14.40;99.90;;;;;;5057190;28;20049;-64
2023/10/06 07:33:39;;;;;;;13.35;6.60;;;14.40;99.90;;;;;;5067754;28;20051;-64
2023/10/06 07:36:13;;;;;;;12.40;5.75;;;14.50;99.90;;;;;;5055127;28;20060;-65
2023/10/06 07:38:41;;;;;;;13.10;6.03;;;14.60;99.90;;;;;;5055334;28;20319;-65
2023/10/06 07:41:08;;;;;;;13.32;6.10;;;14.60;99.90;;;;;;5053922;28;20041;-64
2023/10/06 07:43:34;;;;;;;13.32;6.05;;;14.80;99.90;;;;;;5061499;28;20044;-65
2023/10/06 07:46:07;;;;;;;12.70;6.70;;;14.80;99.90;;;;;;5073475;28;20440;-65
2023/10/06 07:48:36;;;;;;;11.85;6.43;;;14.80;99.90;;;;;;5073368;28;20044;-63
2023/10/06 07:51:07;;;;;;;15.05;7.53;;;14.90;99.90;;;;;;5073569;28;20414;-65
2023/10/06 07:53:35;;;;;;;11.93;6.00;;;14.90;99.90;;;;;;5073352;28;20055;-64
2023/10/06 07:56:06;;;;;;;12.02;6.03;;;14.90;99.90;;;;;;5073992;28;20060;-63
2023/10/06 07:58:37;;;;;;;12.23;5.80;;;14.80;99.90;;;;;;5072537;28;20055;-65
2023/10/06 08:01:13;;;;;;;11.48;5.75;;;14.80;99.90;;;;;;5055435;28;20044;-64
2023/10/06 08:03:41;;;;;;;15.07;6.82;;;14.90;99.90;;;;;;5066494;28;20052;-64
2023/10/06 08:06:10;;;;;;;13.95;6.00;;;14.90;99.90;;;;;;5073204;28;20045;-65
2023/10/06 08:08:38;;;;;;;12.73;6.65;;;14.80;99.90;;;;;;5073373;28;20060;-64
2023/10/06 08:11:06;;;;;;;12.40;6.38;;;14.90;99.90;;;;;;5072733;28;20120;-65
2023/10/06 08:13:36;;;;;;;15.60;6.95;;;14.90;99.90;;;;;;5066617;28;20577;-65
2023/10/06 08:16:03;;;;;;;13.93;6.85;;;15.00;99.90;;;;;;5065476;28;20049;-65
2023/10/06 08:18:29;;;;;;;13.35;6.47;;;15.00;99.90;;;;;;5054974;28;20224;-64
2023/10/06 08:21:03;;;;;;;10.25;6.43;;;15.10;99.90;;;;;;5072885;28;20090;-66
2023/10/06 08:23:31;;;;;;;10.10;6.20;;;15.30;99.90;;;;;;5054919;28;20453;-65
2023/10/06 08:25:58;;;;;;;12.02;6.72;;;15.20;99.90;;;;;;5055977;28;20044;-64
2023/10/06 08:28:26;;;;;;;11.85;7.05;;;15.30;99.90;;;;;;5055920;28;20059;-66
2023/10/06 08:30:52;;;;;;;13.07;6.53;;;15.30;99.90;;;;;;5073579;28;20052;-63
2023/10/06 08:33:19;;;;;;;12.85;7.72;;;15.20;99.90;;;;;;5072011;28;20549;-64
2023/10/06 08:35:45;;;;;;;14.98;6.95;;;15.30;99.90;;;;;;5073802;28;20052;-64
2023/10/06 08:38:11;;;;;;;11.27;6.93;;;15.30;99.90;;;;;;5073921;28;20452;-65
2023/10/06 08:40:41;;;;;;;11.88;7.82;;;15.30;99.90;;;;;;5072914;28;20381;-65
2023/10/06 08:43:08;;;;;;;11.93;6.72;;;15.40;99.90;;;;;;5071388;28;20067;-65
2023/10/06 08:45:41;;;;;;;11.27;7.05;;;15.40;99.90;;;;;;5054206;28;20397;-64
2023/10/06 08:48:12;;;;;;;13.30;7.13;;;15.50;99.90;;;;;;5052766;28;20072;-65
2023/10/06 08:50:41;;;;;;;12.18;6.90;;;15.50;99.90;;;;;;5053788;28;20059;-65
2023/10/06 08:53:13;;;;;;;14.50;7.78;;;15.50;99.90;;;;;;5056222;28;20045;-65
2023/10/06 08:55:40;;;;;;;13.88;8.00;;;15.40;99.90;;;;;;5073731;28;20364;-64
2023/10/06 08:58:07;;;;;;;14.10;6.80;;;15.50;99.90;;;;;;5073606;28;20040;-63
2023/10/06 09:00:37;;;;;;;11.68;6.70;;;15.60;99.90;;;;;;5072838;28;20052;-64
2023/10/06 09:03:11;;;;;;;9.48;6.60;;;15.60;99.90;;;;;;5072243;28;20053;-63
2023/10/06 09:05:40;;;;;;;12.93;7.05;;;15.60;99.90;;;;;;5053647;28;20083;-64
2023/10/06 09:08:08;;;;;;;13.00;6.53;;;15.60;99.90;;;;;;5052606;28;20698;-65
2023/10/06 09:10:43;;;;;;;12.90;6.60;;;15.80;99.90;;;;;;5052554;28;20049;-65
2023/10/06 09:13:11;;;;;;;11.25;6.95;;;15.70;99.90;;;;;;5054295;28;20106;-66
2023/10/06 09:15:43;;;;;;;13.35;6.57;;;15.80;99.90;;;;;;5071386;28;20449;-65
2023/10/06 09:18:20;;;;;;;12.15;6.68;;;15.80;99.90;;;;;;5072110;28;20053;-64
2023/10/06 09:20:47;;;;;;;11.77;6.40;;;15.80;99.90;;;;;;5071328;28;20052;-65
2023/10/06 09:23:34;;;;;;;12.93;7.53;;;15.90;99.90;;;;;;5051749;28;20052;-64
2023/10/06 09:26:02;;;;;;;11.50;6.45;;;15.90;99.90;;;;;;5052531;28;20045;-65
2023/10/06 09:28:28;;;;;;;14.57;7.40;;;16.00;99.90;;;;;;5051307;28;20140;-65
2023/10/06 09:31:05;;;;;;;11.38;6.47;;;16.00;99.90;;;;;;5052272;28;20048;-65
2023/10/06 09:33:37;;;;;;;14.30;6.25;;;16.10;99.90;;;;;;5054689;28;20049;-64
2023/10/06 09:36:09;;;;;;;12.80;6.15;;;16.20;99.90;;;;;;5054526;28;20060;-65
2023/10/06 09:38:37;;;;;;;13.38;6.32;;;16.30;99.90;;;;;;5071375;28;20088;-63
2023/10/06 09:41:07;;;;;;;11.00;6.15;;;16.30;99.90;;;;;;5053953;28;20121;-64
2023/10/06 09:43:40;;;;;;;11.65;5.95;;;16.40;99.90;;;;;;5066904;28;20056;-64
2023/10/06 09:46:11;;;;;;;12.18;6.55;;;16.40;99.90;;;;;;5052382;28;20060;-64
2023/10/06 09:48:39;;;;;;;12.48;6.15;;;16.50;99.90;;;;;;5051520;28;20496;-64
2023/10/06 09:51:10;;;;;;;10.75;5.20;;;16.70;99.90;;;;;;5051370;28;20049;-65
2023/10/06 09:53:43;;;;;;;13.40;6.55;;;16.90;99.90;;;;;;5058243;28;20041;-66
2023/10/06 09:56:12;;;;;;;11.05;5.10;;;17.20;99.90;;;;;;5072496;28;20056;-65
2023/10/06 09:58:41;;;;;;;10.13;5.60;;;17.60;99.90;;;;;;5054987;28;20100;-64
2023/10/06 10:01:14;;;;;;;10.90;5.57;;;17.80;99.90;;;;;;5054135;28;20048;-63
2023/10/06 10:03:42;;;;;;;10.52;5.00;;;18.00;99.90;;;;;;5053732;28;20067;-63
2023/10/06 10:06:09;;;;;;;11.38;5.50;;;18.10;99.90;;;;;;5071988;28;20049;-65
2023/10/06 10:08:39;;;;;;;9.85;5.68;;;18.10;99.90;;;;;;5071900;28;20060;-64
2023/10/06 10:11:13;;;;;;;10.52;5.75;;;18.20;99.90;;;;;;5071382;28;20060;-64
2023/10/06 10:14:02;;;;;;;10.15;5.63;;;18.20;99.90;;;;;;5064990;28;20377;-63
2023/10/06 10:16:37;;;;;;;9.75;4.53;;;18.30;99.90;;;;;;5051845;28;20482;-63
2023/10/06 10:19:13;;;;;;;8.82;4.70;;;18.20;99.90;;;;;;5052217;28;20048;-64
2023/10/06 10:21:41;;;;;;;11.05;5.03;;;18.30;99.90;;;;;;5071872;28;20044;-64
2023/10/06 10:24:13;;;;;;;11.88;4.53;;;18.30;99.90;;;;;;5070752;28;20040;-65
2023/10/06 10:26:40;;;;;;;9.55;5.32;;;18.30;99.90;;;;;;5071561;28;20075;-64
2023/10/06 10:29:12;;;;;;;12.13;4.97;;;18.40;99.90;;;;;;5070980;28;20048;-64
2023/10/06 10:31:46;;;;;;;9.43;4.57;;;18.40;99.90;;;;;;5071478;28;20177;-63
2023/10/06 10:34:20;;;;;;;10.48;5.18;;;18.40;99.90;;;;;;5070123;28;20052;-65
2023/10/06 10:37:13;;;;;;;9.50;4.72;;;18.60;99.90;;;;;;5068543;28;20057;-63
2023/10/06 10:39:48;;;;;;;8.95;4.68;;;18.60;99.90;;;;;;5071510;28;20124;-64
2023/10/06 10:42:18;;;;;;;10.10;4.65;;;18.60;99.90;;;;;;5072019;28;20490;-63
2023/10/06 10:44:47;;;;;;;10.00;4.35;;;18.60;99.90;;;;;;5055478;28;20053;-65
2023/10/06 10:47:15;;;;;;;13.43;5.50;;;18.50;99.90;;;;;;5051486;28;20056;-64
2023/10/06 10:49:46;;;;;;;7.70;4.38;;;18.40;99.90;;;;;;5033157;28;20099;-63
2023/10/06 10:52:13;;;;;;;12.30;6.03;;;18.20;99.90;;;;;;5051287;28;20397;-65
2023/10/06 10:54:40;;;;;;;10.73;4.72;;;18.30;99.90;;;;;;5036931;28;20111;-63
2023/10/06 10:57:13;;;;;;;9.77;5.18;;;18.30;99.90;;;;;;5031318;28;20060;-65
2023/10/06 11:02:40;;;;;;;9.95;4.95;;;18.20;99.90;;;;;;5036583;28;20044;-64
2023/10/06 11:05:07;;;;;;;10.40;4.72;;;18.10;99.90;;;;;;5032959;28;20413;-63
2023/10/06 11:07:35;;;;;;;7.55;4.80;;;18.00;99.90;;;;;;5031276;28;20053;-62
2023/10/06 11:10:03;;;;;;;8.70;4.68;;;18.10;99.90;;;;;;5030715;28;20099;-62
2023/10/06 11:12:30;;;;;;;10.10;5.50;;;18.10;99.90;;;;;;5030891;28;20053;-65
2023/10/06 11:15:03;;;;;;;11.80;4.88;;;18.00;99.90;;;;;;5047015;28;20110;-63
2023/10/06 11:17:31;;;;;;;11.77;5.25;;;18.00;99.90;;;;;;5050985;28;20068;-64
2023/10/06 11:20:04;;;;;;;9.77;5.78;;;18.00;99.90;;;;;;5050640;28;20053;-63
2023/10/06 11:22:32;;;;;;;10.70;4.55;;;18.10;99.90;;;;;;5051393;28;20064;-65
2023/10/06 11:25:03;;;;;;;8.40;5.38;;;18.20;99.90;;;;;;5033945;28;20413;-66
2023/10/06 11:27:29;;;;;;;9.32;5.07;;;18.40;99.90;;;;;;5031483;28;20046;-66
2023/10/06 11:29:57;;;;;;;9.27;4.90;;;18.50;99.90;;;;;;5030861;28;20085;-64
2023/10/06 11:32:24;;;;;;;9.77;4.32;;;18.60;99.90;;;;;;5031003;28;20043;-63
2023/10/06 11:34:50;;;;;;;12.73;5.18;;;18.50;99.90;;;;;;5046058;28;20045;-63
2023/10/06 11:37:29;;;;;;;12.80;5.57;;;18.50;99.90;;;;;;5051128;28;20060;-66
2023/10/06 11:39:57;;;;;;;11.98;5.18;;;18.40;99.90;;;;;;5050752;28;20084;-64
2023/10/06 11:42:32;;;;;;;9.18;4.55;;;18.40;99.90;;;;;;5054333;28;20051;-64
2023/10/06 11:44:59;;;;;;;9.90;4.90;;;18.40;99.90;;;;;;5048642;28;20053;-64
2023/10/06 11:47:26;;;;;;;8.60;4.72;;;18.40;99.90;;;;;;5053607;28;20114;-64
2023/10/06 11:49:59;;;;;;;10.10;4.80;;;18.50;99.90;;;;;;5053631;28;20099;-64
2023/10/06 11:52:26;;;;;;;10.18;5.10;;;18.60;99.90;;;;;;5053986;28;20052;-64
2023/10/06 11:54:53;;;;;;;15.52;5.55;;;18.70;99.90;;;;;;5050134;28;20166;-64
2023/10/06 11:57:39;;;;;;;10.85;5.15;;;18.80;99.90;;;;;;5053828;28;20052;-64
2023/10/06 12:00:10;;;;;;;10.57;4.88;;;18.90;99.90;;;;;;5049946;28;20114;-65
2023/10/06 12:02:56;;;;;;;8.60;4.47;;;19.00;99.90;;;;;;5048173;28;20057;-64
2023/10/06 12:05:23;;;;;;;6.55;4.85;;;19.10;99.90;;;;;;5034696;28;20057;-64
2023/10/06 12:07:49;;;;;;;10.85;5.40;;;19.10;99.90;;;;;;5032863;28;20322;-64
2023/10/06 12:10:20;;;;;;;10.40;4.95;;;19.10;99.90;;;;;;5033462;28;20053;-64
2023/10/06 12:12:48;;;;;;;8.95;5.35;;;19.20;99.90;;;;;;5039202;28;20053;-63
2023/10/06 12:15:14;;;;;;;10.65;5.18;;;19.20;99.90;;;;;;5049232;28;20821;-63
2023/10/06 12:17:42;;;;;;;8.95;4.43;;;19.30;99.90;;;;;;5045272;28;20115;-64
2023/10/06 12:20:13;;;;;;;8.25;4.38;;;19.40;99.90;;;;;;5041570;28;20055;-65
2023/10/06 12:22:43;;;;;;;9.88;3.78;;;19.40;99.90;;;;;;5036569;28;20040;-64
2023/10/06 12:25:19;;;;;;;10.30;3.75;;;19.60;99.90;;;;;;5044823;28;20048;-64
2023/10/06 12:27:45;;;;;;;11.65;4.28;;;19.70;99.90;;;;;;5047701;28;20072;-63
2023/10/06 12:30:13;;;;;;;9.95;4.25;;;19.90;99.90;;;;;;5044177;28;20037;-64
2023/10/06 12:32:41;;;;;;;9.10;3.85;;;19.90;99.90;;;;;;5036157;28;20107;-64
2023/10/06 12:35:08;;;;;;;7.50;4.25;;;19.90;99.90;;;;;;5050385;28;20044;-64
2023/10/06 12:37:40;;;;;;;13.55;4.57;;;20.00;99.90;;;;;;5053566;28;20049;-65
2023/10/06 12:40:11;;;;;;;7.55;3.60;;;19.90;99.90;;;;;;5052441;28;20437;-63
2023/10/06 12:42:39;;;;;;;9.10;4.22;;;20.00;99.90;;;;;;5053285;28;20057;-64
2023/10/06 12:45:18;;;;;;;10.75;4.63;;;19.90;99.90;;;;;;5036273;28;20060;-65
2023/10/06 12:47:46;;;;;;;10.07;4.40;;;19.90;99.90;;;;;;5015467;28;20069;-64
2023/10/06 12:50:16;;;;;;;10.25;4.15;;;19.90;99.90;;;;;;5014677;28;20041;-63
2023/10/06 12:52:49;;;;;;;16.75;5.25;;;19.90;99.90;;;;;;5033201;28;20049;-63
2023/10/06 12:55:20;;;;;;;8.23;3.90;;;19.70;99.90;;;;;;5033685;28;20053;-64
2023/10/06 12:57:48;;;;;;;9.02;4.50;;;19.80;99.90;;;;;;5053336;28;20383;-64
2023/10/06 13:00:15;;;;;;;11.23;3.92;;;19.80;99.90;;;;;;5052290;28;20119;-63
2023/10/06 13:02:41;;;;;;;13.23;4.47;;;19.80;99.90;;;;;;5045702;28;20123;-66
2023/10/06 13:05:09;;;;;;;8.95;4.55;;;19.90;99.90;;;;;;5048361;28;20412;-66
2023/10/06 13:07:36;;;;;;;8.98;3.97;;;19.90;99.90;;;;;;5052670;28;20060;-65
2023/10/06 13:10:06;;;;;;;8.40;3.65;;;19.90;99.90;;;;;;5052182;28;20041;-63